Charleston Air Force Base-International Airport
KCHS : now visible

Airfield :











YOU CAN JOIN US ON...

 
LOGIN :

Register | Disclaimer

   EN    FR    IT 

 









Legend :    VFR   Marginal VFR   IFR   Intensive IFR   Very Intensive IFR
Visi :
Ceiling :
>= 8 km
>= 3000ft
5 to 8 km
1000 to 3000 ft
1500m to 5 km
500 to 1000 ft
800 to 1500m
200 to 500 ft
< 800m
< 200 ft
Symbols :   Thunderstorms  Fog  Heavy snow  Heavy precipitations  Wind > 20 kt






- Airport Elevation : 46 ft
- IATA code : CHS


KCHS - Charleston Air Force Base-International

CURRENT METAR :
  • 170302Z 33007KT 8SM BKN004 OVC008 11/10 A3010 RMK AO2 T01110100 $

EXPIRED METARs :
  • 170256Z 33006KT 8SM SCT004 OVC008 11/10 A3010 RMK AO2 SLP192 T01110100 50003 $
  • 170243Z 35004KT 8SM FEW004 BKN008 OVC031 11/11 A3009 RMK AO2 T01110106 $
  • 170156Z 33006KT 10SM BKN009 OVC026 11/10 A3010 RMK AO2 SLP193 T01110100 $
  • 170132Z 35005KT 10SM FEW005 BKN028 OVC055 11/11 A3009 RMK AO2 T01110106 $
  • 170056Z 03003KT 10SM FEW005 SCT010 OVC085 11/11 A3010 RMK AO2 SLP191 T01110106 $
  • 170040Z 03003KT 10SM FEW005 SCT010 OVC090 11/10 A3010 RMK AO2 T01110100 $

TAF COR TAF KCHS
Valid from the 17 at 00:00 until the 18 at 00:00 UTC


162327Z 1700/1724 03004KT P6SM SCT009 OVC025
FM170200 02004KT P6SM BKN004 OVC009
FM170700 34003KT 5SM BR BKN003 OVC009
FM171200 01005KT P6SM BKN006 OVC010
FM171600 05006KT P6SM SCT008 BKN015 BKN020
FM171900 09006KT P6SM BKN025



MET'MAP, your aeronautical weather chart ! - Copyright ORBIFLY December 2007 - Disclaimer

ORBIFLY MET'MAP TEAM :

Programming & Development : Alexandra Zaïnal
Concept & original design : Baudouin d'Aumeries
Assistance for programming : Marc-Olivier Méhu
Technical & hardware support : Manuel Goepfert

Contact : metmap@orbifly.com




SOURCES & CREDITS :

   NOAA       Earth
Advisory